Terminal Aerodrome Forecast
Issued by NWS

Home | Current Version | Previous Version | Text Only | Print | Product List | Glossary On
Versions: 1 2 3 4 5 6 7 8 9 10 11 12
000
FTUS45 KRIW 291727
TAFCPR
TAF
KCPR 291727Z 2918/3018 22014G24KT P6SM FEW110 SCT200
     FM300500 20018G30KT P6SM BKN200
     FM301000 24018G30KT P6SM BKN200=

USA.gov is the U.S. government's official web portal to all federal, state and local government web resources and services.